sensor_id;sensor_type;location;lat;lon;timestamp;pressure;altitude;pressure_sealevel;temperature;humidity
73103;BME280;61294;65.988;29.172;2023-10-19T00:00:54;98600.00;;;-5.56;100.00
73103;BME280;61294;65.988;29.172;2023-10-19T00:03:22;98651.03;;;-5.30;100.00
73103;BME280;61294;65.988;29.172;2023-10-19T00:05:52;98615.91;;;-5.46;100.00
73103;BME280;61294;65.988;29.172;2023-10-19T00:08:18;98642.03;;;-5.39;100.00
73103;BME280;61294;65.988;29.172;2023-10-19T00:10:48;98614.47;;;-5.56;100.00
73103;BME280;61294;65.988;29.172;2023-10-19T00:13:27;98605.34;;;-5.66;100.00
73103;BME280;61294;65.988;29.172;2023-10-19T00:15:56;98670.00;;;-5.43;100.00
73103;BME280;61294;65.988;29.172;2023-10-19T00:18:23;98626.28;;;-5.60;100.00
73103;BME280;61294;65.988;29.172;2023-10-19T00:20:56;98653.44;;;-5.48;100.00
73103;BME280;61294;65.988;29.172;2023-10-19T00:23:45;98666.91;;;-5.52;100.00
73103;BME280;61294;65.988;29.172;2023-10-19T00:26:13;98670.44;;;-5.50;100.00
73103;BME280;61294;65.988;29.172;2023-10-19T00:28:48;98632.63;;;-5.68;100.00
73103;BME280;61294;65.988;29.172;2023-10-19T00:31:25;98643.69;;;-5.69;100.00
73103;BME280;61294;65.988;29.172;2023-10-19T00:33:53;98648.13;;;-5.66;100.00
73103;BME280;61294;65.988;29.172;2023-10-19T00:36:23;98644.94;;;-5.62;100.00
73103;BME280;61294;65.988;29.172;2023-10-19T00:38:50;98674.69;;;-5.51;100.00
73103;BME280;61294;65.988;29.172;2023-10-19T00:41:23;98678.72;;;-5.55;100.00
73103;BME280;61294;65.988;29.172;2023-10-19T00:43:57;98664.81;;;-5.73;100.00
73103;BME280;61294;65.988;29.172;2023-10-19T00:46:32;98695.47;;;-5.61;100.00
73103;BME280;61294;65.988;29.172;2023-10-19T00:49:03;98656.34;;;-5.72;100.00
73103;BME280;61294;65.988;29.172;2023-10-19T00:51:37;98668.38;;;-5.71;100.00
73103;BME280;61294;65.988;29.172;2023-10-19T00:54:19;98655.16;;;-5.77;100.00
73103;BME280;61294;65.988;29.172;2023-10-19T00:56:59;98679.59;;;-5.69;100.00
73103;BME280;61294;65.988;29.172;2023-10-19T00:59:30;98664.63;;;-5.76;100.00
73103;BME280;61294;65.988;29.172;2023-10-19T01:01:56;98700.41;;;-5.64;100.00
73103;BME280;61294;65.988;29.172;2023-10-19T01:04:41;98697.47;;;-5.70;100.00
73103;BME280;61294;65.988;29.172;2023-10-19T01:07:11;98698.25;;;-5.72;100.00
73103;BME280;61294;65.988;29.172;2023-10-19T01:09:44;98692.06;;;-5.75;100.00
73103;BME280;61294;65.988;29.172;2023-10-19T01:12:10;98705.00;;;-5.74;100.00
73103;BME280;61294;65.988;29.172;2023-10-19T01:17:46;98703.91;;;-5.77;100.00
73103;BME280;61294;65.988;29.172;2023-10-19T01:20:17;98693.53;;;-5.94;100.00
73103;BME280;61294;65.988;29.172;2023-10-19T01:23:03;98727.00;;;-5.77;100.00
73103;BME280;61294;65.988;29.172;2023-10-19T01:28:32;98703.88;;;-5.92;100.00
73103;BME280;61294;65.988;29.172;2023-10-19T01:31:18;98719.53;;;-5.87;100.00
73103;BME280;61294;65.988;29.172;2023-10-19T01:34:07;98704.94;;;-6.03;100.00
73103;BME280;61294;65.988;29.172;2023-10-19T01:36:35;98716.66;;;-6.07;100.00
73103;BME280;61294;65.988;29.172;2023-10-19T01:39:10;98750.94;;;-5.92;100.00
73103;BME280;61294;65.988;29.172;2023-10-19T01:41:37;98745.53;;;-5.96;100.00
73103;BME280;61294;65.988;29.172;2023-10-19T01:44:05;98693.03;;;-6.16;100.00
73103;BME280;61294;65.988;29.172;2023-10-19T01:46:33;98718.19;;;-6.11;100.00
73103;BME280;61294;65.988;29.172;2023-10-19T01:49:00;98757.41;;;-5.98;100.00
73103;BME280;61294;65.988;29.172;2023-10-19T01:51:28;98718.50;;;-6.19;100.00
73103;BME280;61294;65.988;29.172;2023-10-19T01:53:55;98730.13;;;-6.11;100.00
73103;BME280;61294;65.988;29.172;2023-10-19T01:56:22;98763.25;;;-6.01;100.00
73103;BME280;61294;65.988;29.172;2023-10-19T01:58:50;98753.66;;;-6.03;100.00
73103;BME280;61294;65.988;29.172;2023-10-19T02:01:20;98770.03;;;-6.01;100.00
73103;BME280;61294;65.988;29.172;2023-10-19T02:03:51;98764.53;;;-6.08;100.00
73103;BME280;61294;65.988;29.172;2023-10-19T02:06:24;98723.25;;;-6.39;100.00
73103;BME280;61294;65.988;29.172;2023-10-19T02:09:12;98774.69;;;-6.09;100.00
73103;BME280;61294;65.988;29.172;2023-10-19T02:11:51;98767.09;;;-6.08;100.00
73103;BME280;61294;65.988;29.172;2023-10-19T02:14:23;98775.47;;;-6.10;100.00
73103;BME280;61294;65.988;29.172;2023-10-19T02:16:55;98738.31;;;-6.30;100.00
73103;BME280;61294;65.988;29.172;2023-10-19T02:19:26;98748.09;;;-6.25;100.00
73103;BME280;61294;65.988;29.172;2023-10-19T02:21:56;98766.53;;;-6.17;100.00
73103;BME280;61294;65.988;29.172;2023-10-19T02:24:22;98707.22;;;-6.50;100.00
73103;BME280;61294;65.988;29.172;2023-10-19T02:26:50;98771.75;;;-6.15;100.00
73103;BME280;61294;65.988;29.172;2023-10-19T02:29:19;98736.56;;;-6.31;100.00
73103;BME280;61294;65.988;29.172;2023-10-19T02:31:45;98783.38;;;-6.20;100.00
73103;BME280;61294;65.988;29.172;2023-10-19T02:34:13;98774.13;;;-6.18;100.00
73103;BME280;61294;65.988;29.172;2023-10-19T02:36:41;98781.09;;;-6.16;100.00
73103;BME280;61294;65.988;29.172;2023-10-19T02:39:09;98790.28;;;-6.19;100.00
73103;BME280;61294;65.988;29.172;2023-10-19T02:41:44;98717.06;;;-6.56;100.00
73103;BME280;61294;65.988;29.172;2023-10-19T02:44:14;98787.81;;;-6.18;100.00
73103;BME280;61294;65.988;29.172;2023-10-19T02:46:47;98784.16;;;-6.21;100.00
73103;BME280;61294;65.988;29.172;2023-10-19T02:49:14;98713.41;;;-6.46;100.00
73103;BME280;61294;65.988;29.172;2023-10-19T02:51:44;98780.13;;;-6.18;100.00
73103;BME280;61294;65.988;29.172;2023-10-19T02:54:11;98760.63;;;-6.29;100.00
73103;BME280;61294;65.988;29.172;2023-10-19T02:56:54;98699.63;;;-6.62;100.00
73103;BME280;61294;65.988;29.172;2023-10-19T02:59:23;98757.59;;;-6.37;100.00
73103;BME280;61294;65.988;29.172;2023-10-19T03:01:57;98773.25;;;-6.32;100.00
73103;BME280;61294;65.988;29.172;2023-10-19T03:04:43;98729.59;;;-6.61;100.00
73103;BME280;61294;65.988;29.172;2023-10-19T03:07:10;98790.41;;;-6.31;100.00
73103;BME280;61294;65.988;29.172;2023-10-19T03:09:40;98790.28;;;-6.33;100.00
73103;BME280;61294;65.988;29.172;2023-10-19T03:12:14;98726.75;;;-6.65;100.00
73103;BME280;61294;65.988;29.172;2023-10-19T03:14:40;98767.63;;;-6.40;100.00
73103;BME280;61294;65.988;29.172;2023-10-19T03:17:09;98719.75;;;-6.68;100.00
73103;BME280;61294;65.988;29.172;2023-10-19T03:19:36;98788.34;;;-6.37;100.00
73103;BME280;61294;65.988;29.172;2023-10-19T03:22:01;98787.06;;;-6.44;100.00
73103;BME280;61294;65.988;29.172;2023-10-19T03:24:32;98777.69;;;-6.43;100.00
73103;BME280;61294;65.988;29.172;2023-10-19T03:27:09;98786.16;;;-6.44;100.00
73103;BME280;61294;65.988;29.172;2023-10-19T03:29:54;98799.75;;;-6.32;100.00
73103;BME280;61294;65.988;29.172;2023-10-19T03:32:26;98761.03;;;-6.50;100.00
73103;BME280;61294;65.988;29.172;2023-10-19T03:34:57;98803.91;;;-6.34;100.00
73103;BME280;61294;65.988;29.172;2023-10-19T03:37:26;98787.44;;;-6.37;100.00
73103;BME280;61294;65.988;29.172;2023-10-19T03:39:56;98782.81;;;-6.43;100.00
73103;BME280;61294;65.988;29.172;2023-10-19T03:42:23;98807.75;;;-6.40;100.00
73103;BME280;61294;65.988;29.172;2023-10-19T03:44:58;98800.16;;;-6.39;100.00
73103;BME280;61294;65.988;29.172;2023-10-19T03:47:26;98805.09;;;-6.42;100.00
73103;BME280;61294;65.988;29.172;2023-10-19T03:49:57;98789.22;;;-6.50;100.00
73103;BME280;61294;65.988;29.172;2023-10-19T03:52:26;98812.31;;;-6.50;100.00
73103;BME280;61294;65.988;29.172;2023-10-19T03:54:56;98782.41;;;-6.63;100.00
73103;BME280;61294;65.988;29.172;2023-10-19T03:57:24;98813.97;;;-6.50;100.00
73103;BME280;61294;65.988;29.172;2023-10-19T03:59:55;98822.66;;;-6.48;100.00
73103;BME280;61294;65.988;29.172;2023-10-19T04:02:25;98817.91;;;-6.55;100.00
73103;BME280;61294;65.988;29.172;2023-10-19T04:05:12;98818.50;;;-6.60;100.00
73103;BME280;61294;65.988;29.172;2023-10-19T04:07:47;98822.13;;;-6.56;100.00
73103;BME280;61294;65.988;29.172;2023-10-19T04:10:16;98833.88;;;-6.60;100.00
73103;BME280;61294;65.988;29.172;2023-10-19T04:13:01;98828.91;;;-6.70;100.00
73103;BME280;61294;65.988;29.172;2023-10-19T04:15:29;98827.34;;;-6.68;100.00
73103;BME280;61294;65.988;29.172;2023-10-19T04:17:59;98852.28;;;-6.65;100.00
73103;BME280;61294;65.988;29.172;2023-10-19T04:20:26;98813.53;;;-6.83;100.00
73103;BME280;61294;65.988;29.172;2023-10-19T04:22:55;98842.16;;;-6.64;100.00
73103;BME280;61294;65.988;29.172;2023-10-19T04:25:23;98846.25;;;-6.66;100.00
73103;BME280;61294;65.988;29.172;2023-10-19T04:27:53;98836.50;;;-6.71;100.00
73103;BME280;61294;65.988;29.172;2023-10-19T04:30:20;98814.78;;;-6.90;100.00
73103;BME280;61294;65.988;29.172;2023-10-19T04:32:54;98848.44;;;-6.72;100.00
73103;BME280;61294;65.988;29.172;2023-10-19T04:35:24;98848.81;;;-6.79;100.00
73103;BME280;61294;65.988;29.172;2023-10-19T04:37:53;98816.84;;;-6.98;100.00
73103;BME280;61294;65.988;29.172;2023-10-19T04:40:20;98866.63;;;-6.81;100.00
73103;BME280;61294;65.988;29.172;2023-10-19T04:42:52;98831.69;;;-7.05;100.00
73103;BME280;61294;65.988;29.172;2023-10-19T04:45:19;98835.94;;;-7.06;100.00
73103;BME280;61294;65.988;29.172;2023-10-19T04:47:49;98808.50;;;-7.20;100.00
73103;BME280;61294;65.988;29.172;2023-10-19T04:50:18;98837.50;;;-7.08;100.00
73103;BME280;61294;65.988;29.172;2023-10-19T04:52:45;98863.72;;;-6.99;100.00
73103;BME280;61294;65.988;29.172;2023-10-19T04:55:11;98861.25;;;-6.97;100.00
73103;BME280;61294;65.988;29.172;2023-10-19T04:57:38;98810.44;;;-7.30;100.00
73103;BME280;61294;65.988;29.172;2023-10-19T05:00:05;98875.19;;;-6.94;100.00
73103;BME280;61294;65.988;29.172;2023-10-19T05:02:32;98804.03;;;-7.36;100.00
73103;BME280;61294;65.988;29.172;2023-10-19T05:04:58;98844.06;;;-7.12;100.00
73103;BME280;61294;65.988;29.172;2023-10-19T05:07:24;98889.44;;;-6.97;100.00
73103;BME280;61294;65.988;29.172;2023-10-19T05:09:50;98842.09;;;-7.16;100.00
73103;BME280;61294;65.988;29.172;2023-10-19T05:12:16;98871.00;;;-7.05;100.00
73103;BME280;61294;65.988;29.172;2023-10-19T05:14:42;98892.00;;;-6.97;100.00
73103;BME280;61294;65.988;29.172;2023-10-19T05:17:09;98897.31;;;-6.94;100.00
73103;BME280;61294;65.988;29.172;2023-10-19T05:19:36;98887.88;;;-6.95;100.00
73103;BME280;61294;65.988;29.172;2023-10-19T05:22:05;98865.88;;;-7.05;100.00
73103;BME280;61294;65.988;29.172;2023-10-19T05:24:34;98824.81;;;-7.32;100.00
73103;BME280;61294;65.988;29.172;2023-10-19T05:27:00;98832.13;;;-7.24;100.00
73103;BME280;61294;65.988;29.172;2023-10-19T05:29:26;98905.72;;;-6.97;100.00
73103;BME280;61294;65.988;29.172;2023-10-19T05:31:52;98836.19;;;-7.40;100.00
73103;BME280;61294;65.988;29.172;2023-10-19T05:34:26;98893.47;;;-7.01;100.00
73103;BME280;61294;65.988;29.172;2023-10-19T05:36:54;98904.03;;;-6.96;100.00
73103;BME280;61294;65.988;29.172;2023-10-19T05:39:24;98863.25;;;-7.18;100.00
73103;BME280;61294;65.988;29.172;2023-10-19T05:41:54;98913.50;;;-6.95;100.00
73103;BME280;61294;65.988;29.172;2023-10-19T05:44:20;98913.69;;;-6.92;100.00
73103;BME280;61294;65.988;29.172;2023-10-19T05:46:46;98886.16;;;-7.08;100.00
73103;BME280;61294;65.988;29.172;2023-10-19T05:49:12;98888.72;;;-7.08;100.00
73103;BME280;61294;65.988;29.172;2023-10-19T05:51:38;98918.16;;;-6.89;100.00
73103;BME280;61294;65.988;29.172;2023-10-19T05:54:04;98914.00;;;-6.87;100.00
73103;BME280;61294;65.988;29.172;2023-10-19T05:56:33;98887.97;;;-6.94;100.00
73103;BME280;61294;65.988;29.172;2023-10-19T05:58:59;98898.06;;;-6.83;100.00
73103;BME280;61294;65.988;29.172;2023-10-19T06:01:26;98899.75;;;-6.84;100.00
73103;BME280;61294;65.988;29.172;2023-10-19T06:03:52;98926.63;;;-6.77;100.00
73103;BME280;61294;65.988;29.172;2023-10-19T06:06:19;98920.38;;;-6.69;100.00
73103;BME280;61294;65.988;29.172;2023-10-19T06:08:45;98913.69;;;-6.67;100.00
73103;BME280;61294;65.988;29.172;2023-10-19T06:11:11;98908.09;;;-6.86;100.00
73103;BME280;61294;65.988;29.172;2023-10-19T06:13:37;98932.50;;;-6.66;100.00
73103;BME280;61294;65.988;29.172;2023-10-19T06:16:03;98941.63;;;-6.70;100.00
73103;BME280;61294;65.988;29.172;2023-10-19T06:18:29;98933.72;;;-6.61;100.00
73103;BME280;61294;65.988;29.172;2023-10-19T06:20:55;98931.81;;;-6.64;100.00
73103;BME280;61294;65.988;29.172;2023-10-19T06:23:21;98886.59;;;-6.88;100.00
73103;BME280;61294;65.988;29.172;2023-10-19T06:25:47;98936.88;;;-6.52;100.00
73103;BME280;61294;65.988;29.172;2023-10-19T06:28:14;98930.78;;;-6.54;100.00
73103;BME280;61294;65.988;29.172;2023-10-19T06:30:40;98917.03;;;-6.68;100.00
73103;BME280;61294;65.988;29.172;2023-10-19T06:33:06;98905.19;;;-6.66;100.00
73103;BME280;61294;65.988;29.172;2023-10-19T06:35:33;98948.22;;;-6.48;100.00
73103;BME280;61294;65.988;29.172;2023-10-19T06:38:02;98951.00;;;-6.45;100.00
73103;BME280;61294;65.988;29.172;2023-10-19T06:40:29;98953.75;;;-6.42;100.00
73103;BME280;61294;65.988;29.172;2023-10-19T06:42:59;98968.03;;;-6.46;100.00
73103;BME280;61294;65.988;29.172;2023-10-19T06:45:28;98961.25;;;-6.45;100.00
73103;BME280;61294;65.988;29.172;2023-10-19T06:47:57;98964.22;;;-6.39;100.00
73103;BME280;61294;65.988;29.172;2023-10-19T06:50:26;98967.88;;;-6.35;100.00
73103;BME280;61294;65.988;29.172;2023-10-19T06:52:52;98962.84;;;-6.34;100.00
73103;BME280;61294;65.988;29.172;2023-10-19T06:55:20;98970.94;;;-6.28;100.00
73103;BME280;61294;65.988;29.172;2023-10-19T06:57:51;98940.38;;;-6.38;100.00
73103;BME280;61294;65.988;29.172;2023-10-19T07:00:21;98974.91;;;-6.19;100.00
73103;BME280;61294;65.988;29.172;2023-10-19T07:02:53;98927.84;;;-6.47;100.00
73103;BME280;61294;65.988;29.172;2023-10-19T07:05:20;98932.00;;;-6.35;100.00
73103;BME280;61294;65.988;29.172;2023-10-19T07:07:48;98949.84;;;-6.23;100.00
73103;BME280;61294;65.988;29.172;2023-10-19T07:10:19;98909.47;;;-6.53;100.00
73103;BME280;61294;65.988;29.172;2023-10-19T07:12:47;98982.31;;;-6.11;100.00
73103;BME280;61294;65.988;29.172;2023-10-19T07:15:14;98967.41;;;-6.16;100.00
73103;BME280;61294;65.988;29.172;2023-10-19T07:17:41;98943.81;;;-6.37;100.00
73103;BME280;61294;65.988;29.172;2023-10-19T07:20:09;98988.19;;;-6.00;100.00
73103;BME280;61294;65.988;29.172;2023-10-19T07:23:01;98997.63;;;-5.99;100.00
73103;BME280;61294;65.988;29.172;2023-10-19T07:25:50;98992.66;;;-5.96;100.00
73103;BME280;61294;65.988;29.172;2023-10-19T07:28:25;98983.59;;;-5.91;100.00
73103;BME280;61294;65.988;29.172;2023-10-19T07:30:52;98960.84;;;-5.99;100.00
73103;BME280;61294;65.988;29.172;2023-10-19T07:33:18;98978.84;;;-5.84;100.00
73103;BME280;61294;65.988;29.172;2023-10-19T07:35:46;98962.78;;;-5.95;100.00
73103;BME280;61294;65.988;29.172;2023-10-19T07:38:14;99008.91;;;-5.70;100.00
73103;BME280;61294;65.988;29.172;2023-10-19T07:40:40;98975.41;;;-5.85;100.00
73103;BME280;61294;65.988;29.172;2023-10-19T07:43:06;98995.16;;;-5.70;100.00
73103;BME280;61294;65.988;29.172;2023-10-19T07:45:33;99026.75;;;-5.58;100.00
73103;BME280;61294;65.988;29.172;2023-10-19T07:48:00;98985.56;;;-5.73;100.00
73103;BME280;61294;65.988;29.172;2023-10-19T07:50:35;99027.34;;;-5.35;100.00
73103;BME280;61294;65.988;29.172;2023-10-19T07:53:01;99013.41;;;-5.39;100.00
73103;BME280;61294;65.988;29.172;2023-10-19T07:55:27;98988.75;;;-5.50;100.00
73103;BME280;61294;65.988;29.172;2023-10-19T07:57:55;99032.69;;;-5.32;100.00
73103;BME280;61294;65.988;29.172;2023-10-19T08:00:22;98976.31;;;-5.58;100.00
73103;BME280;61294;65.988;29.172;2023-10-19T08:02:49;99019.97;;;-4.32;100.00
73103;BME280;61294;65.988;29.172;2023-10-19T08:05:15;99030.41;;;-2.13;100.00
73103;BME280;61294;65.988;29.172;2023-10-19T08:07:44;99028.22;;;-2.71;100.00
73103;BME280;61294;65.988;29.172;2023-10-19T08:10:13;99027.63;;;-3.44;100.00
73103;BME280;61294;65.988;29.172;2023-10-19T08:12:40;99045.66;;;-3.44;100.00
73103;BME280;61294;65.988;29.172;2023-10-19T08:15:09;99040.03;;;-2.91;100.00
73103;BME280;61294;65.988;29.172;2023-10-19T08:17:40;99033.00;;;-1.78;100.00
73103;BME280;61294;65.988;29.172;2023-10-19T08:20:08;99033.41;;;1.02;100.00
73103;BME280;61294;65.988;29.172;2023-10-19T08:22:53;99013.28;;;7.63;100.00
73103;BME280;61294;65.988;29.172;2023-10-19T08:25:19;99003.91;;;10.26;66.00
73103;BME280;61294;65.988;29.172;2023-10-19T08:27:46;98987.00;;;11.92;59.68
73103;BME280;61294;65.988;29.172;2023-10-19T08:30:20;98992.22;;;12.13;51.79
73103;BME280;61294;65.988;29.172;2023-10-19T08:32:46;99014.28;;;12.02;49.59
73103;BME280;61294;65.988;29.172;2023-10-19T08:35:18;99027.44;;;6.61;54.26
73103;BME280;61294;65.988;29.172;2023-10-19T08:37:49;99002.59;;;3.72;59.88
73103;BME280;61294;65.988;29.172;2023-10-19T08:40:15;99046.38;;;3.55;64.56
73103;BME280;61294;65.988;29.172;2023-10-19T08:42:45;99002.88;;;1.64;77.24
73103;BME280;61294;65.988;29.172;2023-10-19T08:45:12;99044.16;;;1.11;87.75
73103;BME280;61294;65.988;29.172;2023-10-19T08:47:59;99021.91;;;1.18;97.02
73103;BME280;61294;65.988;29.172;2023-10-19T08:50:33;99031.28;;;4.04;86.29
73103;BME280;61294;65.988;29.172;2023-10-19T08:53:04;99035.25;;;8.49;63.99
73103;BME280;61294;65.988;29.172;2023-10-19T08:55:31;99035.13;;;12.53;51.01
73103;BME280;61294;65.988;29.172;2023-10-19T08:57:57;99029.41;;;15.19;46.96
73103;BME280;61294;65.988;29.172;2023-10-19T09:00:26;99029.50;;;16.10;40.79
73103;BME280;61294;65.988;29.172;2023-10-19T09:02:56;99049.03;;;13.83;42.21
73103;BME280;61294;65.988;29.172;2023-10-19T09:05:25;99046.59;;;12.52;42.72
73103;BME280;61294;65.988;29.172;2023-10-19T09:07:55;99051.47;;;13.96;39.80
73103;BME280;61294;65.988;29.172;2023-10-19T09:10:25;99042.25;;;15.92;39.33
73103;BME280;61294;65.988;29.172;2023-10-19T09:13:02;99037.94;;;15.86;37.35
73103;BME280;61294;65.988;29.172;2023-10-19T09:15:29;99043.53;;;15.71;36.77
73103;BME280;61294;65.988;29.172;2023-10-19T09:18:17;99056.25;;;12.56;39.90
73103;BME280;61294;65.988;29.172;2023-10-19T09:20:51;99061.38;;;7.06;45.98
73103;BME280;61294;65.988;29.172;2023-10-19T09:23:36;99041.78;;;3.75;51.99
73103;BME280;61294;65.988;29.172;2023-10-19T09:26:02;99081.53;;;2.09;57.66
73103;BME280;61294;65.988;29.172;2023-10-19T09:28:29;99052.66;;;1.30;65.23
73103;BME280;61294;65.988;29.172;2023-10-19T09:30:55;99058.78;;;0.88;75.67
73103;BME280;61294;65.988;29.172;2023-10-19T09:33:22;99075.56;;;0.33;82.61
73103;BME280;61294;65.988;29.172;2023-10-19T09:35:50;99071.72;;;0.44;86.84
73103;BME280;61294;65.988;29.172;2023-10-19T09:38:22;99083.56;;;1.46;89.58
73103;BME280;61294;65.988;29.172;2023-10-19T09:40:49;99039.06;;;3.72;76.27
73103;BME280;61294;65.988;29.172;2023-10-19T09:43:22;99046.34;;;8.25;62.22
73103;BME280;61294;65.988;29.172;2023-10-19T09:45:53;99080.38;;;11.50;51.45
73103;BME280;61294;65.988;29.172;2023-10-19T09:48:24;99073.09;;;13.58;43.60
73103;BME280;61294;65.988;29.172;2023-10-19T09:50:55;99070.69;;;11.70;43.92
73103;BME280;61294;65.988;29.172;2023-10-19T09:53:25;99073.38;;;10.78;45.50
73103;BME280;61294;65.988;29.172;2023-10-19T09:55:54;99095.16;;;10.23;46.08
73103;BME280;61294;65.988;29.172;2023-10-19T09:58:26;99061.81;;;6.81;49.49
73103;BME280;61294;65.988;29.172;2023-10-19T10:00:54;99092.88;;;3.41;55.73
73103;BME280;61294;65.988;29.172;2023-10-19T10:03:45;99094.56;;;2.34;62.15
73103;BME280;61294;65.988;29.172;2023-10-19T10:06:12;99095.00;;;1.29;73.54
73103;BME280;61294;65.988;29.172;2023-10-19T10:08:41;99084.91;;;1.59;77.55
73103;BME280;61294;65.988;29.172;2023-10-19T10:11:17;99081.38;;;0.69;80.88
73103;BME280;61294;65.988;29.172;2023-10-19T10:13:44;99114.47;;;0.96;87.30
73103;BME280;61294;65.988;29.172;2023-10-19T10:16:13;99125.28;;;0.45;91.11
73103;BME280;61294;65.988;29.172;2023-10-19T10:18:41;99102.84;;;0.05;93.80
73103;BME280;61294;65.988;29.172;2023-10-19T10:21:11;99112.06;;;-0.39;100.00
73103;BME280;61294;65.988;29.172;2023-10-19T10:24:00;99125.94;;;-0.37;100.00
73103;BME280;61294;65.988;29.172;2023-10-19T10:26:30;99127.25;;;-0.83;100.00
73103;BME280;61294;65.988;29.172;2023-10-19T10:29:08;99104.91;;;-0.45;100.00
73103;BME280;61294;65.988;29.172;2023-10-19T10:31:41;99079.03;;;0.97;100.00
73103;BME280;61294;65.988;29.172;2023-10-19T10:34:09;99114.47;;;5.28;75.60
73103;BME280;61294;65.988;29.172;2023-10-19T10:37:01;99111.19;;;2.64;77.69
73103;BME280;61294;65.988;29.172;2023-10-19T10:39:29;99096.19;;;3.64;78.68
73103;BME280;61294;65.988;29.172;2023-10-19T10:42:02;99117.34;;;5.03;73.19
73103;BME280;61294;65.988;29.172;2023-10-19T10:44:39;99094.97;;;4.12;71.00
73103;BME280;61294;65.988;29.172;2023-10-19T10:47:10;99097.44;;;2.18;76.04
73103;BME280;61294;65.988;29.172;2023-10-19T10:49:59;99096.81;;;0.88;87.76
73103;BME280;61294;65.988;29.172;2023-10-19T10:52:26;99120.91;;;0.64;92.47
73103;BME280;61294;65.988;29.172;2023-10-19T10:54:53;99120.94;;;-0.14;98.17
73103;BME280;61294;65.988;29.172;2023-10-19T10:57:19;99131.78;;;0.76;97.32
73103;BME280;61294;65.988;29.172;2023-10-19T11:00:11;99115.97;;;0.29;100.00
73103;BME280;61294;65.988;29.172;2023-10-19T11:03:00;99112.66;;;-0.45;100.00
73103;BME280;61294;65.988;29.172;2023-10-19T11:05:26;99141.06;;;-0.46;100.00
73103;BME280;61294;65.988;29.172;2023-10-19T11:08:23;99095.72;;;-0.94;100.00
73103;BME280;61294;65.988;29.172;2023-10-19T11:10:49;99139.22;;;-1.03;100.00
73103;BME280;61294;65.988;29.172;2023-10-19T11:13:18;99104.84;;;-1.18;100.00
73103;BME280;61294;65.988;29.172;2023-10-19T11:15:49;99132.50;;;-0.63;100.00
73103;BME280;61294;65.988;29.172;2023-10-19T11:18:35;99118.41;;;1.30;100.00
73103;BME280;61294;65.988;29.172;2023-10-19T11:21:08;99087.03;;;1.24;100.00
73103;BME280;61294;65.988;29.172;2023-10-19T11:23:49;99124.59;;;0.09;100.00
73103;BME280;61294;65.988;29.172;2023-10-19T11:26:22;99126.38;;;-0.28;100.00
73103;BME280;61294;65.988;29.172;2023-10-19T11:29:02;99120.34;;;-0.09;100.00
73103;BME280;61294;65.988;29.172;2023-10-19T11:31:35;99074.81;;;-0.23;100.00
73103;BME280;61294;65.988;29.172;2023-10-19T11:34:06;99091.09;;;-0.45;100.00
73103;BME280;61294;65.988;29.172;2023-10-19T11:36:33;99113.00;;;0.82;100.00
73103;BME280;61294;65.988;29.172;2023-10-19T11:38:59;99081.06;;;0.21;100.00
73103;BME280;61294;65.988;29.172;2023-10-19T11:41:25;99107.53;;;-0.81;100.00
73103;BME280;61294;65.988;29.172;2023-10-19T11:43:51;99104.28;;;-1.13;100.00
73103;BME280;61294;65.988;29.172;2023-10-19T11:46:18;99093.28;;;-1.27;100.00
73103;BME280;61294;65.988;29.172;2023-10-19T11:48:44;99103.63;;;-1.27;100.00
73103;BME280;61294;65.988;29.172;2023-10-19T11:51:10;99096.66;;;-1.28;100.00
73103;BME280;61294;65.988;29.172;2023-10-19T11:53:40;99146.09;;;-1.03;100.00
73103;BME280;61294;65.988;29.172;2023-10-19T11:56:10;99118.78;;;-1.51;100.00
73103;BME280;61294;65.988;29.172;2023-10-19T11:58:38;99115.63;;;-1.45;100.00
73103;BME280;61294;65.988;29.172;2023-10-19T12:01:08;99126.28;;;-1.56;100.00
73103;BME280;61294;65.988;29.172;2023-10-19T12:03:34;99145.94;;;-1.25;100.00
73103;BME280;61294;65.988;29.172;2023-10-19T12:06:05;99157.53;;;-0.98;100.00
73103;BME280;61294;65.988;29.172;2023-10-19T12:08:35;99117.66;;;-1.03;100.00
73103;BME280;61294;65.988;29.172;2023-10-19T12:11:04;99140.06;;;-0.68;100.00
73103;BME280;61294;65.988;29.172;2023-10-19T12:13:41;99144.13;;;-0.91;100.00
73103;BME280;61294;65.988;29.172;2023-10-19T12:16:13;99096.56;;;-1.47;100.00
73103;BME280;61294;65.988;29.172;2023-10-19T12:18:46;99136.88;;;-1.33;100.00
73103;BME280;61294;65.988;29.172;2023-10-19T12:21:14;99137.41;;;-1.40;100.00
73103;BME280;61294;65.988;29.172;2023-10-19T12:23:43;99099.97;;;-1.30;100.00
73103;BME280;61294;65.988;29.172;2023-10-19T12:26:09;99133.44;;;-1.33;100.00
73103;BME280;61294;65.988;29.172;2023-10-19T12:28:39;99133.56;;;-1.81;100.00
73103;BME280;61294;65.988;29.172;2023-10-19T12:31:06;99084.59;;;-2.13;100.00
73103;BME280;61294;65.988;29.172;2023-10-19T12:33:35;99104.31;;;-2.15;100.00
73103;BME280;61294;65.988;29.172;2023-10-19T12:36:01;99140.28;;;-2.18;100.00
73103;BME280;61294;65.988;29.172;2023-10-19T12:38:47;99102.72;;;-2.61;100.00
73103;BME280;61294;65.988;29.172;2023-10-19T12:41:13;99114.56;;;-2.64;100.00
73103;BME280;61294;65.988;29.172;2023-10-19T12:43:39;99129.41;;;-2.60;100.00
73103;BME280;61294;65.988;29.172;2023-10-19T12:46:05;99109.31;;;-2.66;100.00
73103;BME280;61294;65.988;29.172;2023-10-19T12:48:34;99095.81;;;-2.77;100.00
73103;BME280;61294;65.988;29.172;2023-10-19T12:51:06;99100.88;;;-2.78;100.00
73103;BME280;61294;65.988;29.172;2023-10-19T12:53:33;99141.53;;;-2.74;100.00
73103;BME280;61294;65.988;29.172;2023-10-19T12:55:59;99138.53;;;-2.82;100.00
73103;BME280;61294;65.988;29.172;2023-10-19T12:58:25;99141.72;;;-2.86;100.00
73103;BME280;61294;65.988;29.172;2023-10-19T13:00:53;99146.63;;;-2.90;100.00
73103;BME280;61294;65.988;29.172;2023-10-19T13:03:20;99142.91;;;-2.96;100.00
73103;BME280;61294;65.988;29.172;2023-10-19T13:05:47;99161.72;;;-2.97;100.00